ImprimablePdf
Antwerp, 25/04/2010, BEL - DVV Antwerp Marathon & 10 Miles
Liste des rapports > Marathon - Classement + Video
Recherche: Page: [1]
32 Entrées
 
Les réclamations ne sont plus acceptées, les résultats sont considérés comme définitifs.
RangNrNomAgeIOCTempsTkmMoy.ScrLocalité
1.1153BEEKEN WALTHER60BEL3:10:514:32 13.27134LIEDEKERKETéléchargez votre diplome!
2.2383UYTTENDAELE FRANCOIS60BEL3:17:044:41 12.85200ZELZATETéléchargez votre diplome!
3.2361POESSEN JEAN62BEL3:20:064:45 12.65222BILZENTéléchargez votre diplome!
4.1112MICHIELSEN JEF63BEL3:25:554:53 12.30295KALMTHOUTTéléchargez votre diplome!
5.1228VERMEESCH FERNAND61BEL3:29:124:58 12.10350DE HAANTéléchargez votre diplome!
6.1805NELSEN Fernand60BEL3:29:464:59 12.07356Téléchargez votre diplome!
7.1344BEMONG MARC62BEL3:30:245:00 12.03376TIELT (BT.)Téléchargez votre diplome!
8.717TILLIEUX GUY60BEL3:36:245:08 11.70449HASSELTTéléchargez votre diplome!
9.1386PAENEN IVO64BEL3:41:595:16 11.41541ZOERSELTéléchargez votre diplome!
10.1816WYNANTS Laurent62BEL3:46:305:23 11.18631Téléchargez votre diplome!
11.914BULCAEN BOUDEWIJN62BEL3:50:155:28 11.00686KUURNETéléchargez votre diplome!
12.2029DIAZ_GAVIER Patricio62BEL3:52:135:31 10.90721Téléchargez votre diplome!
13.775HOEKEN MICHEL62BEL3:56:445:37 10.69811KINROOITéléchargez votre diplome!
14.587BRUYNOOGHE HUGO63BEL3:58:545:40 10.60877VEURNETéléchargez votre diplome!
15.1352STUEREBAUT MARC60BEL3:59:125:41 10.58880OPWIJKTéléchargez votre diplome!
16.794JUSTIN LUCIEN64FRA4:00:025:42 10.55892OUTREAUTéléchargez votre diplome!
17.1379VAN DORST RENE63BEL4:10:505:57 10.091019ESSENTéléchargez votre diplome!
18.1257DE LILLE ALFONS61BEL4:13:356:01 9.981063MALDEGEMTéléchargez votre diplome!
19.807RICHTER MARTIN63GER4:16:116:05 9.881106NEURUPPINTéléchargez votre diplome!
20.633DE KEYSER GUST62BEL4:18:446:08 9.791146VLEZENBEEKTéléchargez votre diplome!
21.176KEIJLEWER ROB64ANT4:20:056:10 9.731161AMSTELVEENTéléchargez votre diplome!
22.296GEYS ROB62BEL4:24:506:17 9.561200ANTWERPEN 1Téléchargez votre diplome!
23.734TIMMERMANS RIK61BEL4:28:166:22 9.441218ZEEBRUGGETéléchargez votre diplome!
24.2346SCHUERMANS KAREL63BEL4:29:476:24 9.381231MORTSELTéléchargez votre diplome!
25.2276VANHOVE PIERRE62BEL4:30:486:26 9.351237ANTWERPEN 1Téléchargez votre diplome!
26.783MARBAIX LUCIEN61BEL4:43:246:43 8.931326BRUXELLES 18Téléchargez votre diplome!
27.592SPOOREN CHRIS64BEL4:49:466:53 8.741354OVERPELTTéléchargez votre diplome!
28.1342NUYTS HUGO60BEL4:50:376:54 8.711357DEURNETéléchargez votre diplome!
29.894PORIAU HUBERT62BEL4:57:217:03 8.511385LIERTéléchargez votre diplome!
30.1801MOL Ben61BEL5:00:507:08 8.421399Téléchargez votre diplome!
31.726HUGAERT DAAN61BEL5:08:327:19 8.211413GENTTéléchargez votre diplome!
32.240THOELEN WILLY63BEL5:10:047:21 8.171416KOERSELTéléchargez votre diplome!
DNF: abandon; DSQ: disqualifié; Vitesse en km/h
ChronoRace - Electronic Timing - www.chronorace.be